Time;durP1;ratioP1;P1;durP2;ratioP2;P2;SDS_P1;SDS_P2;PMS_P1;PMS_P2;Temp;Humidity;BMP_temperature;BMP_pressure;BME280_temperature;BME280_humidity;BME280_pressure;Samples;Min_cycle;Max_cycle;Signal;HPM_P1;HPM_P2
2021/12/08 00:00:40;;;;;;;2.83;1.90;;;;;;;-1.51;100.00;93396.16;5073621;28;20036;-78
2021/12/08 00:03:08;;;;;;;3.72;2.00;;;;;;;-1.44;100.00;93401.25;5075478;28;20024;-78
2021/12/08 00:05:34;;;;;;;4.03;2.40;;;;;;;-1.56;100.00;93398.19;5077558;28;20107;-77
2021/12/08 00:08:00;;;;;;;3.72;2.25;;;;;;;-1.56;100.00;93406.19;5075648;28;20377;-78
2021/12/08 00:13:07;;;;;;;3.70;1.88;;;;;;;-1.56;100.00;93400.84;5076115;28;20058;-76
2021/12/08 00:16:04;;;;;;;3.60;2.30;;;;;;;-1.45;100.00;93410.41;5075056;28;20055;-77
2021/12/08 00:18:33;;;;;;;3.35;2.30;;;;;;;-1.44;100.00;93412.63;5071848;28;20032;-78
2021/12/08 00:21:02;;;;;;;3.00;2.10;;;;;;;-1.42;100.00;93420.94;5073277;28;20415;-77
2021/12/08 00:23:28;;;;;;;4.10;2.17;;;;;;;-1.46;100.00;93416.88;5073347;28;20013;-77
2021/12/08 00:25:55;;;;;;;2.80;2.20;;;;;;;-1.36;100.00;93421.84;5073315;28;20036;-78
2021/12/08 00:28:22;;;;;;;3.83;2.30;;;;;;;-1.30;100.00;93430.00;5073513;28;20047;-78
2021/12/08 00:30:55;;;;;;;4.97;2.10;;;;;;;-1.56;100.00;93421.41;5072892;28;20060;-78
2021/12/08 00:33:21;;;;;;;3.67;2.40;;;;;;;-1.40;100.00;93436.47;5072977;28;20021;-77
2021/12/08 00:35:49;;;;;;;3.47;2.20;;;;;;;-1.48;100.00;93433.28;5071998;28;20093;-78
2021/12/08 00:38:17;;;;;;;4.40;2.88;;;;;;;-1.42;100.00;93433.47;5072940;28;20099;-78
2021/12/08 00:40:43;;;;;;;3.92;2.42;;;;;;;-1.34;100.00;93431.31;5073221;28;20024;-78
2021/12/08 00:43:09;;;;;;;3.88;2.40;;;;;;;-1.37;100.00;93443.56;5072933;28;20544;-78
2021/12/08 00:45:35;;;;;;;3.10;2.20;;;;;;;-1.31;100.00;93441.84;5072816;28;20024;-77
2021/12/08 00:48:04;;;;;;;3.40;2.25;;;;;;;-1.43;100.00;93439.97;5071808;28;20142;-77
2021/12/08 00:50:35;;;;;;;4.35;2.35;;;;;;;-1.39;100.00;93445.91;5073013;28;20438;-77
2021/12/08 00:53:01;;;;;;;3.30;2.20;;;;;;;-1.28;100.00;93448.19;5072807;28;20028;-76
2021/12/08 00:55:28;;;;;;;2.90;2.10;;;;;;;-1.22;100.00;93449.88;5072791;28;20589;-76
2021/12/08 00:57:53;;;;;;;3.80;2.50;;;;;;;-1.38;100.00;93442.06;5072920;28;20095;-76
2021/12/08 01:00:31;;;;;;;5.65;2.67;;;;;;;-1.29;100.00;93441.41;5072609;28;20025;-76
2021/12/08 01:02:58;;;;;;;3.60;2.30;;;;;;;-1.36;100.00;93439.75;5071756;28;20465;-77
2021/12/08 01:05:31;;;;;;;3.90;2.50;;;;;;;-1.27;100.00;93442.47;5075355;28;20211;-77
2021/12/08 01:07:57;;;;;;;4.57;2.53;;;;;;;-1.36;100.00;93450.38;5077240;28;20024;-77
2021/12/08 01:10:26;;;;;;;4.05;2.60;;;;;;;-1.44;100.00;93452.53;5076761;28;20422;-76
2021/12/08 01:12:52;;;;;;;3.53;2.45;;;;;;;-1.58;100.00;93451.13;5076586;28;20024;-77
2021/12/08 01:15:18;;;;;;;4.65;2.55;;;;;;;-1.59;100.00;93454.97;5075581;28;20069;-77
2021/12/08 01:17:44;;;;;;;3.85;2.90;;;;;;;-1.45;100.00;93453.72;5076490;28;20031;-77
2021/12/08 01:20:12;;;;;;;4.57;3.08;;;;;;;-1.48;100.00;93446.59;5076534;28;20033;-77
2021/12/08 01:22:39;;;;;;;4.82;2.95;;;;;;;-1.36;100.00;93455.72;5076532;28;20094;-77
2021/12/08 01:25:05;;;;;;;5.05;2.90;;;;;;;-1.29;100.00;93449.41;5076581;28;20033;-76
2021/12/08 01:27:33;;;;;;;5.65;2.80;;;;;;;-1.36;100.00;93448.44;5075349;28;20051;-77
2021/12/08 01:29:59;;;;;;;5.22;3.10;;;;;;;-1.37;100.00;93454.94;5076088;28;20024;-77
2021/12/08 01:32:24;;;;;;;4.38;3.20;;;;;;;-1.50;100.00;93442.88;5075265;28;20539;-77
2021/12/08 01:34:52;;;;;;;5.35;3.35;;;;;;;-1.41;100.00;93449.00;5076230;28;20028;-77
2021/12/08 01:37:18;;;;;;;4.93;3.55;;;;;;;-1.59;100.00;93449.63;5075116;28;20060;-77
2021/12/08 01:39:44;;;;;;;5.68;3.85;;;;;;;-1.41;100.00;93450.94;5076108;28;20052;-77
2021/12/08 01:42:16;;;;;;;7.93;3.55;;;;;;;-1.52;100.00;93447.91;5076355;28;20063;-77
2021/12/08 01:47:27;;;;;;;6.45;3.47;;;;;;;-1.49;100.00;93455.03;5075963;28;19930;-77
2021/12/08 01:49:53;;;;;;;5.93;3.60;;;;;;;-1.46;100.00;93462.13;5076043;28;20115;-77
2021/12/08 01:52:18;;;;;;;6.13;3.90;;;;;;;-1.44;100.00;93463.19;5075781;28;20111;-77
2021/12/08 01:54:44;;;;;;;6.38;3.75;;;;;;;-1.38;100.00;93466.03;5075795;28;20028;-77
2021/12/08 01:57:10;;;;;;;5.03;3.55;;;;;;;-1.28;100.00;93467.59;5074805;28;20017;-77
2021/12/08 01:59:35;;;;;;;5.55;3.83;;;;;;;-1.29;100.00;93476.03;5074932;28;20067;-78
2021/12/08 02:02:01;;;;;;;6.25;3.83;;;;;;;-1.31;100.00;93489.78;5076334;28;20379;-76
2021/12/08 02:04:26;;;;;;;7.72;4.28;;;;;;;-1.32;100.00;93479.53;5076047;28;20059;-77
2021/12/08 02:06:52;;;;;;;7.50;4.72;;;;;;;-1.34;100.00;93479.97;5075572;28;20017;-76
2021/12/08 02:09:18;;;;;;;6.07;4.35;;;;;;;-1.47;100.00;93492.59;5074505;28;20044;-76
2021/12/08 02:11:46;;;;;;;6.88;4.10;;;;;;;-1.30;100.00;93477.91;5075360;28;20585;-77
2021/12/08 02:14:12;;;;;;;9.23;4.90;;;;;;;-1.32;100.00;93482.94;5075964;28;20020;-77
2021/12/08 02:16:38;;;;;;;7.85;4.57;;;;;;;-1.44;100.00;93492.47;5074523;28;20453;-77
2021/12/08 02:19:06;;;;;;;8.00;4.60;;;;;;;-1.40;100.00;93484.38;5075382;28;20107;-77
2021/12/08 02:21:34;;;;;;;7.63;5.20;;;;;;;-1.37;100.00;93491.50;5075353;28;20488;-77
2021/12/08 02:24:03;;;;;;;6.55;4.43;;;;;;;-1.44;100.00;93487.16;5075154;28;20021;-77
2021/12/08 02:26:29;;;;;;;8.02;4.75;;;;;;;-1.41;100.00;93490.88;5075410;28;20043;-77
2021/12/08 02:28:56;;;;;;;8.25;4.35;;;;;;;-1.44;100.00;93497.06;5075256;28;20016;-77
2021/12/08 02:31:38;;;;;;;8.00;4.93;;;;;;;-1.34;100.00;93501.25;5074911;28;20397;-77
2021/12/08 02:47:53;;;;;;;11.93;7.13;;;;;;;-1.29;100.00;93523.94;5075171;28;20089;-78
2021/12/08 02:50:29;;;;;;;11.50;7.90;;;;;;;-1.39;100.00;93512.47;5075412;28;20016;-78
2021/12/08 02:52:57;;;;;;;13.73;7.75;;;;;;;-1.45;100.00;93506.97;5074988;28;20067;-78
2021/12/08 02:55:23;;;;;;;12.02;7.15;;;;;;;-1.48;100.00;93504.44;5074810;28;20082;-77
2021/12/08 02:57:49;;;;;;;15.65;7.05;;;;;;;-1.47;100.00;93504.00;5074561;28;20024;-77
2021/12/08 03:00:19;;;;;;;15.02;8.23;;;;;;;-1.45;100.00;93511.53;5073506;28;20020;-76
2021/12/08 03:02:45;;;;;;;13.95;8.40;;;;;;;-1.46;100.00;93512.72;5074966;28;20054;-77
2021/12/08 03:05:11;;;;;;;15.77;9.05;;;;;;;-1.46;100.00;93510.81;5074546;28;20028;-77
2021/12/08 03:07:37;;;;;;;15.93;9.68;;;;;;;-1.23;100.00;93522.97;5074417;28;20059;-76
2021/12/08 03:10:12;;;;;;;15.77;9.20;;;;;;;-1.52;100.00;93512.53;5074380;28;20078;-77
2021/12/08 03:12:39;;;;;;;16.20;9.63;;;;;;;-1.45;100.00;93517.59;5074549;28;20025;-78
2021/12/08 03:15:05;;;;;;;21.02;10.55;;;;;;;-1.40;100.00;93511.00;5074486;28;20479;-77
2021/12/08 03:17:33;;;;;;;19.45;10.05;;;;;;;-1.44;100.00;93523.69;5074388;28;20020;-77
2021/12/08 03:19:58;;;;;;;19.23;10.68;;;;;;;-1.52;100.00;93506.47;5074098;28;20056;-77
2021/12/08 03:22:24;;;;;;;16.40;9.23;;;;;;;-1.40;100.00;93516.31;5074054;28;20024;-77
2021/12/08 03:24:51;;;;;;;16.05;9.40;;;;;;;-1.42;100.00;93529.31;5074491;28;20048;-77
2021/12/08 03:27:22;;;;;;;17.73;10.38;;;;;;;-1.39;100.00;93525.78;5074615;28;20032;-77
2021/12/08 03:32:28;;;;;;;17.58;10.13;;;;;;;-1.45;100.00;93527.53;5073848;28;20045;-78
2021/12/08 03:34:54;;;;;;;16.63;10.10;;;;;;;-1.52;100.00;93533.09;5074610;28;20033;-77
2021/12/08 03:37:25;;;;;;;19.70;11.60;;;;;;;-1.49;100.00;93538.28;5073927;28;20529;-77
2021/12/08 03:39:51;;;;;;;20.88;11.68;;;;;;;-1.50;100.00;93530.72;5074243;28;20028;-77
2021/12/08 03:42:20;;;;;;;19.02;11.00;;;;;;;-1.59;100.00;93539.38;5072599;28;20024;-77
2021/12/08 03:44:46;;;;;;;21.15;10.95;;;;;;;-1.58;100.00;93530.97;5073709;28;20032;-77
2021/12/08 03:47:15;;;;;;;26.55;12.55;;;;;;;-1.36;100.00;93536.31;5073666;28;20021;-77
2021/12/08 03:49:43;;;;;;;21.58;11.02;;;;;;;-1.39;100.00;93541.75;5073807;28;20020;-78
2021/12/08 03:52:09;;;;;;;22.35;11.77;;;;;;;-1.48;100.00;93544.34;5072636;28;20165;-77
2021/12/08 03:54:34;;;;;;;21.02;12.02;;;;;;;-1.45;100.00;93543.50;5073603;28;20107;-77
2021/12/08 03:57:00;;;;;;;19.33;11.38;;;;;;;-1.40;100.00;93551.66;5073397;28;20024;-77
2021/12/08 03:59:25;;;;;;;22.38;11.43;;;;;;;-1.32;100.00;93557.50;5073458;28;20029;-77
2021/12/08 04:01:51;;;;;;;19.30;11.23;;;;;;;-1.51;100.00;93555.84;5073669;28;20131;-76
2021/12/08 04:04:16;;;;;;;24.15;12.13;;;;;;;-1.33;100.00;93566.66;5073638;28;20066;-77
2021/12/08 04:06:49;;;;;;;19.52;10.93;;;;;;;-1.34;100.00;93564.44;5073775;28;20024;-77
2021/12/08 04:09:27;;;;;;;24.35;12.68;;;;;;;-1.22;100.00;93566.28;5073539;28;20025;-77
2021/12/08 04:11:54;;;;;;;21.63;11.48;;;;;;;-1.12;100.00;93575.09;5073726;28;20104;-78
2021/12/08 04:14:23;;;;;;;24.65;12.90;;;;;;;-1.15;100.00;93567.97;5073169;28;20462;-77
2021/12/08 04:16:58;;;;;;;20.10;11.20;;;;;;;-1.07;100.00;93566.56;5073143;28;20470;-77
2021/12/08 04:19:25;;;;;;;21.15;10.93;;;;;;;-1.24;100.00;93569.41;5073536;28;20381;-78
2021/12/08 04:21:54;;;;;;;21.50;12.05;;;;;;;-1.30;100.00;93568.44;5072370;28;20111;-78
2021/12/08 04:24:20;;;;;;;22.38;12.20;;;;;;;-1.16;100.00;93569.88;5073082;28;20020;-77
2021/12/08 04:27:02;;;;;;;21.77;11.93;;;;;;;-1.20;100.00;93574.59;5073068;28;20082;-77
2021/12/08 04:29:40;;;;;;;22.13;11.50;;;;;;;-1.30;100.00;93581.75;5073349;28;20063;-77
2021/12/08 04:32:08;;;;;;;19.13;10.00;;;;;;;-1.29;100.00;93582.53;5072961;28;20075;-77
2021/12/08 04:34:38;;;;;;;29.23;12.05;;;;;;;-1.13;100.00;93590.34;5073284;28;20098;-77
2021/12/08 04:37:21;;;;;;;22.25;11.95;;;;;;;-1.14;100.00;93588.84;5073540;28;20074;-78
2021/12/08 04:40:07;;;;;;;22.05;12.52;;;;;;;-1.18;100.00;93585.56;5073112;28;20108;-77
2021/12/08 04:42:56;;;;;;;22.33;12.50;;;;;;;-1.20;100.00;93596.66;5072120;28;20052;-77
2021/12/08 04:45:28;;;;;;;23.25;14.15;;;;;;;-1.10;100.00;93602.06;5072995;28;20025;-77
2021/12/08 04:53:05;;;;;;;24.65;12.98;;;;;;;-1.09;100.00;93608.84;5072908;28;20024;-78
2021/12/08 05:01:29;;;;;;;21.92;12.55;;;;;;;-1.00;100.00;93619.56;5078661;28;20480;-76
2021/12/08 05:06:49;;;;;;;18.63;9.68;;;;;;;-1.13;100.00;93618.88;5072828;28;20373;-77
2021/12/08 05:09:23;;;;;;;24.67;12.35;;;;;;;-1.01;100.00;93628.72;5073056;28;20047;-77
2021/12/08 05:12:05;;;;;;;23.08;11.65;;;;;;;-1.18;100.00;93635.44;5073061;28;20028;-77
2021/12/08 05:14:39;;;;;;;26.00;12.52;;;;;;;-1.06;100.00;93637.31;5072731;28;20032;-77
2021/12/08 05:17:13;;;;;;;21.52;11.68;;;;;;;-1.25;100.00;93645.13;5073120;28;20463;-77
2021/12/08 05:19:42;;;;;;;24.65;13.55;;;;;;;-1.24;100.00;93648.53;5072881;28;20032;-77
2021/12/08 05:22:13;;;;;;;26.23;13.70;;;;;;;-1.29;100.00;93644.50;5072257;28;20032;-77
2021/12/08 05:24:44;;;;;;;24.80;13.57;;;;;;;-1.40;100.00;93652.09;5072388;28;20028;-76
2021/12/08 05:27:34;;;;;;;28.77;14.38;;;;;;;-1.47;100.00;93655.72;5071409;28;20032;-76
2021/12/08 05:30:09;;;;;;;22.25;13.07;;;;;;;-1.37;100.00;93656.56;5072691;28;20108;-77
2021/12/08 05:32:35;;;;;;;28.30;13.55;;;;;;;-1.40;100.00;93657.41;5072700;28;20178;-78
2021/12/08 05:35:00;;;;;;;26.10;13.77;;;;;;;-1.45;100.00;93660.63;5072403;28;20055;-77
2021/12/08 05:37:27;;;;;;;29.83;15.40;;;;;;;-1.48;100.00;93656.16;5071580;28;20410;-77
2021/12/08 05:39:53;;;;;;;29.92;13.73;;;;;;;-1.47;100.00;93653.06;5072274;28;20131;-78
2021/12/08 05:42:24;;;;;;;27.30;14.35;;;;;;;-1.38;100.00;93655.06;5072243;28;20008;-78
2021/12/08 05:44:49;;;;;;;26.65;14.27;;;;;;;-1.38;100.00;93655.06;5072668;28;20063;-77
2021/12/08 05:47:19;;;;;;;26.98;14.38;;;;;;;-1.39;100.00;93661.56;5072236;28;20048;-77
2021/12/08 05:49:46;;;;;;;27.92;15.25;;;;;;;-1.32;100.00;93666.66;5073077;28;20055;-78
2021/12/08 05:52:13;;;;;;;28.75;14.63;;;;;;;-1.28;100.00;93669.19;5074393;28;20029;-76
2021/12/08 05:54:43;;;;;;;28.30;14.02;;;;;;;-1.26;100.00;93672.19;5076071;28;20020;-78
2021/12/08 05:57:36;;;;;;;30.73;13.68;;;;;;;-1.31;100.00;93668.16;5075561;28;20074;-77
2021/12/08 06:00:19;;;;;;;27.45;12.75;;;;;;;-1.46;100.00;93672.44;5075568;28;20048;-77
2021/12/08 06:02:45;;;;;;;26.15;13.02;;;;;;;-1.36;100.00;93680.09;5075965;28;20021;-77
2021/12/08 06:05:12;;;;;;;26.13;13.65;;;;;;;-1.38;100.00;93665.72;5075383;28;20028;-77
2021/12/08 06:07:37;;;;;;;28.05;13.93;;;;;;;-1.44;100.00;93678.09;5075371;28;20024;-76
2021/12/08 06:10:08;;;;;;;26.63;14.35;;;;;;;-1.28;100.00;93685.94;5075327;28;20496;-77
2021/12/08 06:12:34;;;;;;;28.13;13.73;;;;;;;-1.38;100.00;93697.66;5075781;28;20028;-77
2021/12/08 06:15:00;;;;;;;27.33;14.13;;;;;;;-1.24;100.00;93697.22;5074347;28;20051;-77
2021/12/08 06:17:29;;;;;;;22.63;11.55;;;;;;;-1.38;100.00;93709.06;5075381;28;20074;-76
2021/12/08 06:19:55;;;;;;;29.27;14.95;;;;;;;-1.26;100.00;93709.47;5075471;28;20027;-78
2021/12/08 06:22:23;;;;;;;29.67;14.88;;;;;;;-1.37;100.00;93728.44;5074829;28;20370;-77
2021/12/08 06:24:50;;;;;;;27.88;13.95;;;;;;;-1.46;100.00;93726.44;5075307;28;20025;-77
2021/12/08 06:27:15;;;;;;;30.98;15.52;;;;;;;-1.44;100.00;93718.00;5075191;28;20469;-77
2021/12/08 06:29:42;;;;;;;29.10;14.80;;;;;;;-1.43;100.00;93706.16;5075233;28;20108;-77
2021/12/08 06:32:10;;;;;;;30.30;14.27;;;;;;;-1.34;100.00;93724.91;5074863;28;20041;-77
2021/12/08 06:34:37;;;;;;;22.25;11.75;;;;;;;-1.46;100.00;93717.69;5073916;28;20020;-77
2021/12/08 06:37:17;;;;;;;22.85;12.27;;;;;;;-1.47;100.00;93727.59;5075578;28;20060;-78
2021/12/08 06:39:48;;;;;;;22.50;12.82;;;;;;;-1.48;100.00;93725.38;5075375;28;20356;-78
2021/12/08 06:42:16;;;;;;;;;;;;;;;-1.49;100.00;93721.94;5075708;28;20445;-77
2021/12/08 06:44:47;;;;;;;27.13;12.68;;;;;;;-1.40;100.00;93729.31;5075149;28;19994;-78
2021/12/08 06:47:25;;;;;;;27.00;15.50;;;;;;;-1.37;100.00;93720.44;5075194;28;20123;-78
2021/12/08 06:49:54;;;;;;;27.45;13.30;;;;;;;-1.34;100.00;93713.53;5074877;28;20032;-76
2021/12/08 06:52:30;;;;;;;20.98;11.38;;;;;;;-1.56;100.00;93717.56;5074815;28;20024;-76
2021/12/08 06:55:02;;;;;;;23.13;11.55;;;;;;;-1.40;100.00;93710.66;5075141;28;20052;-76
2021/12/08 06:57:56;;;;;;;27.55;13.75;;;;;;;-1.41;100.00;93711.81;5074934;28;20492;-76
2021/12/08 07:00:58;;;;;;;26.23;13.40;;;;;;;-1.36;100.00;93719.28;5074766;28;20024;-76
2021/12/08 07:08:24;;;;;;;22.08;12.18;;;;;;;-1.24;100.00;93713.19;5074652;28;20028;-77
2021/12/08 07:10:56;;;;;;;21.15;10.55;;;;;;;-1.22;100.00;93732.13;5074439;28;20016;-77
2021/12/08 07:13:25;;;;;;;21.77;11.10;;;;;;;-1.26;100.00;93726.19;5074709;28;20020;-76
2021/12/08 07:16:08;;;;;;;22.17;12.32;;;;;;;-1.19;100.00;93725.22;5074100;28;20093;-75
2021/12/08 07:18:49;;;;;;;23.25;11.75;;;;;;;-1.26;100.00;93726.19;5073911;28;20040;-77
2021/12/08 07:21:16;;;;;;;22.75;10.77;;;;;;;-1.08;100.00;93746.19;5074357;28;20465;-76
2021/12/08 07:23:51;;;;;;;21.52;11.35;;;;;;;-1.25;100.00;93743.66;5073943;28;20020;-75
2021/12/08 07:26:20;;;;;;;23.95;13.07;;;;;;;-1.21;100.00;93746.94;5073788;28;20024;-75
2021/12/08 07:28:47;;;;;;;22.45;12.60;;;;;;;-1.23;100.00;93756.53;5074636;28;20016;-77
2021/12/08 07:31:18;;;;;;;23.92;13.13;;;;;;;-1.22;100.00;93756.09;5074162;28;20040;-76
2021/12/08 07:33:44;;;;;;;19.10;9.45;;;;;;;-1.10;100.00;93759.19;5074373;28;20113;-79
2021/12/08 07:36:16;;;;;;;25.02;12.32;;;;;;;-1.20;100.00;93751.09;5073967;28;20028;-77
2021/12/08 07:38:44;;;;;;;19.73;11.73;;;;;;;-1.34;100.00;93767.50;5074059;28;20020;-78
2021/12/08 07:41:18;;;;;;;30.05;12.80;;;;;;;-1.31;100.00;93756.03;5074141;28;20133;-78
2021/12/08 07:43:49;;;;;;;24.80;13.65;;;;;;;-1.36;100.00;93764.53;5074094;28;20052;-79
2021/12/08 07:46:27;;;;;;;25.15;13.18;;;;;;;-1.42;100.00;93774.22;5073868;28;20024;-77
2021/12/08 07:48:59;;;;;;;21.48;12.02;;;;;;;-1.41;100.00;93762.41;5074322;28;20028;-79
2021/12/08 07:51:28;;;;;;;;;;;;;;;-1.46;100.00;93766.38;5074639;28;20039;-79
2021/12/08 07:53:55;;;;;;;17.08;9.95;;;;;;;-1.38;100.00;93772.19;5074647;28;19916;-79
2021/12/08 07:56:24;;;;;;;27.00;12.65;;;;;;;-1.36;100.00;93781.25;5078285;28;20054;-79
2021/12/08 07:58:54;;;;;;;20.88;12.75;;;;;;;-1.24;100.00;93787.75;5075634;28;20016;-77
2021/12/08 08:01:25;;;;;;;24.52;12.82;;;;;;;-1.33;100.00;93778.94;5074522;28;20469;-79
2021/12/08 08:03:52;;;;;;;27.20;13.48;;;;;;;-1.08;100.00;93789.56;5073460;28;20553;-80
2021/12/08 08:06:27;;;;;;;21.83;12.57;;;;;;;-1.22;100.00;93793.38;5073446;28;20071;-78
2021/12/08 08:08:52;;;;;;;21.27;11.68;;;;;;;-1.29;100.00;93790.94;5073643;28;20048;-79
2021/12/08 08:11:39;;;;;;;24.58;12.95;;;;;;;-1.30;100.00;93792.13;5073585;28;20059;-80
2021/12/08 08:14:05;;;;;;;27.65;12.77;;;;;;;-1.16;100.00;93798.19;5073058;28;20032;-81
2021/12/08 08:16:34;;;;;;;23.00;12.80;;;;;;;-1.12;100.00;93799.56;5073213;28;20031;-80
2021/12/08 08:19:07;;;;;;;23.20;11.77;;;;;;;-1.34;100.00;93798.72;5073475;28;20373;-82
2021/12/08 08:21:36;;;;;;;25.63;13.88;;;;;;;-1.29;100.00;93804.25;5073642;28;20052;-80
2021/12/08 08:24:04;;;;;;;18.88;11.15;;;;;;;-1.25;100.00;93810.22;5073195;28;20031;-81
2021/12/08 08:26:32;;;;;;;23.02;12.13;;;;;;;-1.17;100.00;93802.00;5073232;28;20095;-81
2021/12/08 08:28:58;;;;;;;25.30;11.70;;;;;;;-1.26;100.00;93795.41;5073099;28;20021;-79
2021/12/08 08:31:33;;;;;;;26.25;12.65;;;;;;;-1.13;100.00;93798.09;5073008;28;20044;-79
2021/12/08 08:34:00;;;;;;;24.67;12.35;;;;;;;-1.09;100.00;93805.94;5073701;28;20124;-79
2021/12/08 08:36:37;;;;;;;19.23;10.48;;;;;;;-1.12;100.00;93810.22;5073689;28;20078;-79
2021/12/08 08:39:18;;;;;;;23.33;11.50;;;;;;;-1.18;100.00;93800.53;5073842;28;20426;-81
2021/12/08 08:41:49;;;;;;;21.03;11.27;;;;;;;-1.03;100.00;93801.59;5073530;28;20039;-83
2021/12/08 08:44:28;;;;;;;22.58;12.23;;;;;;;-1.05;100.00;93793.25;5072100;28;20036;-80
2021/12/08 08:46:55;;;;;;;25.65;12.57;;;;;;;-0.74;100.00;93800.69;5073322;28;20101;-81
2021/12/08 08:49:25;;;;;;;21.80;12.70;;;;;;;-1.11;100.00;93795.72;5072977;28;20401;-78
2021/12/08 08:52:00;;;;;;;22.50;12.10;;;;;;;-0.95;100.00;93788.81;5073022;28;20482;-78
2021/12/08 08:54:31;;;;;;;19.23;11.00;;;;;;;-0.95;100.00;93802.84;5071973;28;20064;-79
2021/12/08 08:57:03;;;;;;;;;;;;;;;-0.97;100.00;93789.19;5073693;28;20104;-78
2021/12/08 08:59:33;;;;;;;23.45;11.73;;;;;;;-0.91;100.00;93779.50;5072839;28;20003;-76
2021/12/08 09:02:04;;;;;;;20.65;11.07;;;;;;;-0.67;100.00;93781.78;5071448;28;20067;-77
2021/12/08 09:04:36;;;;;;;23.23;12.13;;;;;;;-0.59;100.00;93775.03;5072900;28;20024;-76
2021/12/08 09:07:06;;;;;;;24.05;10.98;;;;;;;-0.72;100.00;93782.34;5072972;28;20055;-75
2021/12/08 09:09:37;;;;;;;21.52;10.95;;;;;;;-0.51;100.00;93773.63;5072967;28;20029;-78
2021/12/08 09:12:07;;;;;;;23.35;12.55;;;;;;;-0.39;100.00;93788.09;5072875;28;20025;-75
2021/12/08 09:14:40;;;;;;;26.65;13.35;;;;;;;-0.21;100.00;93776.81;5072795;28;20040;-82
2021/12/08 09:17:12;;;;;;;22.10;12.27;;;;;;;-0.30;100.00;93757.34;5072956;28;20025;-72
2021/12/08 09:19:46;;;;;;;25.80;11.82;;;;;;;-0.28;100.00;93761.06;5071565;28;20028;-77
2021/12/08 09:22:22;;;;;;;21.27;11.93;;;;;;;-0.37;100.00;93755.66;5071875;28;20346;-79
2021/12/08 09:25:21;;;;;;;24.20;12.80;;;;;;;-0.24;100.00;93752.97;5073665;28;20419;-79
2021/12/08 09:27:51;;;;;;;26.48;13.15;;;;;;;-0.18;100.00;93748.53;5072458;28;20036;-80
2021/12/08 09:30:26;;;;;;;25.67;11.98;;;;;;;-0.07;100.00;93745.50;5076409;28;20140;-79
2021/12/08 09:32:58;;;;;;;17.88;10.63;;;;;;;-0.03;100.00;93749.53;5076670;28;20036;-78
2021/12/08 09:35:27;;;;;;;20.10;11.57;;;;;;;0.12;100.00;93749.78;5076360;28;20445;-77
2021/12/08 09:37:57;;;;;;;22.02;11.93;;;;;;;0.15;100.00;93748.91;5076516;28;20024;-76
2021/12/08 09:41:10;;;;;;;23.30;11.82;;;;;;;0.29;100.00;93750.28;5076408;28;20096;-80
2021/12/08 09:43:44;;;;;;;20.38;11.40;;;;;;;0.33;100.00;93744.84;5071238;28;20036;-79
2021/12/08 09:46:15;;;;;;;21.75;10.95;;;;;;;0.35;100.00;93734.44;5076651;28;20028;-79
2021/12/08 09:48:43;;;;;;;15.80;9.52;;;;;;;0.32;100.00;93733.41;5076194;28;20071;-79
2021/12/08 09:51:10;;;;;;;16.25;9.88;;;;;;;0.61;100.00;93740.31;5076008;28;20030;-78
2021/12/08 09:53:35;;;;;;;22.35;11.77;;;;;;;0.69;100.00;93735.47;5075907;28;20021;-78
2021/12/08 09:56:03;;;;;;;17.50;9.65;;;;;;;0.42;100.00;93739.50;5076120;28;20078;-79
2021/12/08 09:58:28;;;;;;;21.98;11.57;;;;;;;0.89;100.00;93737.75;5076016;28;20017;-78
2021/12/08 10:00:57;;;;;;;16.75;10.10;;;;;;;0.99;100.00;93746.53;5075623;28;20047;-78
2021/12/08 10:03:24;;;;;;;21.65;11.73;;;;;;;1.08;100.00;93741.19;5076717;28;20017;-78
2021/12/08 10:05:50;;;;;;;18.90;10.63;;;;;;;1.00;100.00;93743.41;5075763;28;20024;-78
2021/12/08 10:08:16;;;;;;;16.95;9.82;;;;;;;0.79;100.00;93733.56;5075809;28;20029;-77
2021/12/08 10:10:44;;;;;;;17.55;9.30;;;;;;;0.72;100.00;93739.91;5075922;28;20029;-77
2021/12/08 10:13:11;;;;;;;17.67;10.10;;;;;;;0.70;100.00;93731.63;5075591;28;20020;-76
2021/12/08 10:15:37;;;;;;;19.52;10.35;;;;;;;0.79;100.00;93744.25;5075791;28;20038;-77
2021/12/08 10:18:04;;;;;;;20.38;11.07;;;;;;;0.74;100.00;93745.56;5076159;28;20095;-77
2021/12/08 10:20:33;;;;;;;22.23;11.98;;;;;;;0.73;100.00;93746.75;5074525;28;20029;-79
2021/12/08 10:23:18;;;;;;;21.25;12.90;;;;;;;0.82;100.00;93743.38;5075977;28;20066;-78
2021/12/08 10:26:03;;;;;;;23.42;12.35;;;;;;;0.49;100.00;93739.25;5075440;28;20461;-80
2021/12/08 10:28:33;;;;;;;24.17;13.73;;;;;;;1.03;100.00;93741.78;5075770;28;20039;-79
2021/12/08 10:31:07;;;;;;;26.05;14.93;;;;;;;1.01;100.00;93746.84;5074135;28;20547;-80
2021/12/08 10:37:00;;;;;;;22.67;10.50;;;;;;;0.98;100.00;93729.00;5076365;28;20377;-79
2021/12/08 10:39:38;;;;;;;18.65;10.63;;;;;;;1.18;100.00;93741.97;5077040;28;20032;-79
2021/12/08 10:42:18;;;;;;;20.30;11.80;;;;;;;1.34;100.00;93732.91;5075772;28;20427;-80
2021/12/08 10:44:56;;;;;;;23.85;12.32;;;;;;;1.52;100.00;93738.25;5078686;28;20033;-77
2021/12/08 10:47:31;;;;;;;23.98;13.55;;;;;;;1.20;100.00;93733.50;5077301;28;20020;-78
2021/12/08 10:55:17;;;;;;;23.92;13.13;;;;;;;1.62;100.00;93735.59;5077360;28;20472;-77
2021/12/08 10:57:50;;;;;;;26.27;14.57;;;;;;;1.28;100.00;93732.00;5075464;28;20028;-77
2021/12/08 11:00:20;;;;;;;29.48;14.43;;;;;;;1.03;100.00;93733.03;5074039;28;20517;-77
2021/12/08 11:02:58;;;;;;;26.25;14.60;;;;;;;0.98;100.00;93723.66;5075776;28;20047;-77
2021/12/08 11:05:29;;;;;;;29.73;15.23;;;;;;;0.77;100.00;93715.31;5076199;28;20062;-76
2021/12/08 11:08:06;;;;;;;23.52;13.93;;;;;;;0.63;100.00;93705.19;5075102;28;20044;-76
2021/12/08 11:10:39;;;;;;;27.05;14.75;;;;;;;0.69;100.00;93711.41;5075397;28;20056;-76
2021/12/08 11:13:05;;;;;;;27.45;14.18;;;;;;;0.56;100.00;93721.47;5075842;28;20066;-76
2021/12/08 11:15:32;;;;;;;29.30;14.23;;;;;;;0.40;100.00;93719.81;5074551;28;20108;-77
2021/12/08 11:18:15;;;;;;;38.17;15.45;;;;;;;0.40;100.00;93725.13;5074290;28;20020;-76
2021/12/08 11:20:59;;;;;;;25.45;14.63;;;;;;;0.53;100.00;93727.69;5074791;28;20052;-75
2021/12/08 11:23:48;;;;;;;26.80;13.77;;;;;;;0.50;100.00;93734.66;5074654;28;20464;-75
2021/12/08 11:26:21;;;;;;;22.83;13.45;;;;;;;0.61;100.00;93728.91;5082803;28;20029;-76
2021/12/08 11:29:04;;;;;;;24.27;13.63;;;;;;;0.60;100.00;93730.09;5087155;28;20028;-75
2021/12/08 11:31:34;;;;;;;27.10;13.98;;;;;;;0.48;100.00;93721.00;5088307;28;20082;-75
2021/12/08 11:34:02;;;;;;;28.15;14.32;;;;;;;0.53;100.00;93720.41;5086577;28;20043;-76
2021/12/08 11:36:35;;;;;;;23.48;13.73;;;;;;;0.31;100.00;93723.91;5074080;28;20032;-78
2021/12/08 11:39:18;;;;;;;25.08;14.32;;;;;;;0.24;100.00;93732.16;5074585;28;20028;-76
2021/12/08 11:41:53;;;;;;;20.83;12.57;;;;;;;0.00;100.00;93721.25;5074577;28;20062;-75
2021/12/08 11:44:28;;;;;;;20.33;12.25;;;;;;;-0.07;100.00;93729.50;5074038;28;20021;-75
2021/12/08 11:46:57;;;;;;;57.28;29.88;;;;;;;0.00;100.00;93726.59;5074264;28;20380;-75
2021/12/08 11:49:24;;;;;;;37.47;20.50;;;;;;;0.09;100.00;93715.94;5073546;28;20103;-76
2021/12/08 11:51:53;;;;;;;71.40;39.47;;;;;;;0.10;100.00;93736.13;5074152;28;20035;-75
2021/12/08 11:54:22;;;;;;;25.02;13.73;;;;;;;0.01;100.00;93738.72;5073829;28;20409;-75
2021/12/08 11:56:48;;;;;;;25.85;13.93;;;;;;;0.05;100.00;93750.00;5073890;28;20089;-76
2021/12/08 11:59:14;;;;;;;25.67;15.13;;;;;;;0.23;100.00;93737.94;5072800;28;20032;-76
2021/12/08 12:01:40;;;;;;;25.65;14.15;;;;;;;-0.08;100.00;93736.75;5073565;28;20017;-76
2021/12/08 12:04:09;;;;;;;27.85;16.13;;;;;;;-0.15;100.00;93736.25;5073383;28;20410;-76
2021/12/08 12:06:36;;;;;;;33.00;16.23;;;;;;;0.57;100.00;93749.66;5072392;28;20024;-75
2021/12/08 12:09:05;;;;;;;31.17;14.80;;;;;;;-0.11;100.00;93739.53;5073889;28;20075;-76
2021/12/08 12:11:30;;;;;;;27.92;14.55;;;;;;;-0.05;100.00;93743.16;5073723;28;20031;-76
2021/12/08 12:13:58;;;;;;;27.00;14.73;;;;;;;-0.10;100.00;93749.78;5073689;28;20036;-76
2021/12/08 12:16:25;;;;;;;24.60;14.32;;;;;;;-0.21;100.00;93746.75;5073789;28;20039;-75
2021/12/08 12:18:53;;;;;;;21.48;12.10;;;;;;;-0.10;100.00;93754.38;5073422;28;20162;-75
2021/12/08 12:21:47;;;;;;;23.45;13.45;;;;;;;-0.01;100.00;93751.78;5072012;28;20024;-74